sensor_id;sensor_type;location;lat;lon;timestamp;P1;durP1;ratioP1;P2;durP2;ratioP2
53299;SDS011;39187;48.476;8.310;2022-09-02T00:01:26;10.10;;;9.27;;
53299;SDS011;39187;48.476;8.310;2022-09-02T00:03:55;9.40;;;8.70;;
53299;SDS011;39187;48.476;8.310;2022-09-02T00:06:29;10.60;;;9.57;;
53299;SDS011;39187;48.476;8.310;2022-09-02T00:08:56;9.60;;;8.90;;
53299;SDS011;39187;48.476;8.310;2022-09-02T00:11:24;9.97;;;9.47;;
53299;SDS011;39187;48.476;8.310;2022-09-02T00:13:52;10.00;;;9.37;;
53299;SDS011;39187;48.476;8.310;2022-09-02T00:16:19;9.53;;;9.13;;
53299;SDS011;39187;48.476;8.310;2022-09-02T00:18:48;9.93;;;9.03;;
53299;SDS011;39187;48.476;8.310;2022-09-02T00:21:15;9.70;;;9.30;;
53299;SDS011;39187;48.476;8.310;2022-09-02T00:23:42;8.90;;;8.40;;
53299;SDS011;39187;48.476;8.310;2022-09-02T00:26:10;9.37;;;8.70;;
53299;SDS011;39187;48.476;8.310;2022-09-02T00:28:37;8.83;;;8.10;;
53299;SDS011;39187;48.476;8.310;2022-09-02T00:31:04;8.73;;;8.33;;
53299;SDS011;39187;48.476;8.310;2022-09-02T00:33:30;9.53;;;8.73;;
53299;SDS011;39187;48.476;8.310;2022-09-02T00:35:59;10.13;;;9.43;;
53299;SDS011;39187;48.476;8.310;2022-09-02T00:38:26;9.83;;;9.13;;
53299;SDS011;39187;48.476;8.310;2022-09-02T00:40:53;10.47;;;9.50;;
53299;SDS011;39187;48.476;8.310;2022-09-02T00:43:39;8.43;;;8.07;;
53299;SDS011;39187;48.476;8.310;2022-09-02T00:46:05;7.70;;;7.30;;
53299;SDS011;39187;48.476;8.310;2022-09-02T00:48:31;10.10;;;9.10;;
53299;SDS011;39187;48.476;8.310;2022-09-02T00:50:57;7.77;;;7.27;;
53299;SDS011;39187;48.476;8.310;2022-09-02T00:53:26;8.67;;;8.27;;
53299;SDS011;39187;48.476;8.310;2022-09-02T00:55:52;7.70;;;7.40;;
53299;SDS011;39187;48.476;8.310;2022-09-02T00:58:19;8.10;;;7.10;;
53299;SDS011;39187;48.476;8.310;2022-09-02T01:00:49;7.77;;;7.20;;
53299;SDS011;39187;48.476;8.310;2022-09-02T01:03:20;8.63;;;8.33;;
53299;SDS011;39187;48.476;8.310;2022-09-02T01:05:47;8.50;;;8.10;;
53299;SDS011;39187;48.476;8.310;2022-09-02T01:08:15;8.30;;;7.90;;
53299;SDS011;39187;48.476;8.310;2022-09-02T01:10:44;7.77;;;7.37;;
53299;SDS011;39187;48.476;8.310;2022-09-02T01:13:13;7.70;;;7.07;;
53299;SDS011;39187;48.476;8.310;2022-09-02T01:15:43;8.83;;;8.10;;
53299;SDS011;39187;48.476;8.310;2022-09-02T01:18:16;8.13;;;7.73;;
53299;SDS011;39187;48.476;8.310;2022-09-02T01:20:45;8.50;;;7.87;;
53299;SDS011;39187;48.476;8.310;2022-09-02T01:23:12;8.03;;;7.73;;
53299;SDS011;39187;48.476;8.310;2022-09-02T01:25:41;8.30;;;7.60;;
53299;SDS011;39187;48.476;8.310;2022-09-02T01:28:08;7.60;;;7.20;;
53299;SDS011;39187;48.476;8.310;2022-09-02T01:30:38;7.00;;;6.70;;
53299;SDS011;39187;48.476;8.310;2022-09-02T01:33:07;7.20;;;7.00;;
53299;SDS011;39187;48.476;8.310;2022-09-02T01:35:33;7.80;;;7.40;;
53299;SDS011;39187;48.476;8.310;2022-09-02T01:37:59;7.00;;;6.60;;
53299;SDS011;39187;48.476;8.310;2022-09-02T01:40:26;6.93;;;6.37;;
53299;SDS011;39187;48.476;8.310;2022-09-02T01:42:55;6.90;;;6.57;;
53299;SDS011;39187;48.476;8.310;2022-09-02T01:45:23;6.73;;;6.43;;
53299;SDS011;39187;48.476;8.310;2022-09-02T01:47:49;6.30;;;5.90;;
53299;SDS011;39187;48.476;8.310;2022-09-02T01:50:16;6.67;;;6.47;;
53299;SDS011;39187;48.476;8.310;2022-09-02T01:52:43;6.40;;;6.20;;
53299;SDS011;39187;48.476;8.310;2022-09-02T01:55:09;6.20;;;5.90;;
53299;SDS011;39187;48.476;8.310;2022-09-02T01:57:34;7.00;;;6.60;;
53299;SDS011;39187;48.476;8.310;2022-09-02T02:00:00;6.80;;;6.40;;
53299;SDS011;39187;48.476;8.310;2022-09-02T02:02:26;5.80;;;5.60;;
53299;SDS011;39187;48.476;8.310;2022-09-02T02:04:52;7.03;;;6.70;;
53299;SDS011;39187;48.476;8.310;2022-09-02T02:07:19;6.03;;;5.73;;
53299;SDS011;39187;48.476;8.310;2022-09-02T02:09:46;6.30;;;5.80;;
53299;SDS011;39187;48.476;8.310;2022-09-02T02:12:13;6.27;;;5.97;;
53299;SDS011;39187;48.476;8.310;2022-09-02T02:14:39;6.40;;;6.00;;
53299;SDS011;39187;48.476;8.310;2022-09-02T02:17:05;6.70;;;6.50;;
53299;SDS011;39187;48.476;8.310;2022-09-02T02:19:31;5.90;;;5.70;;
53299;SDS011;39187;48.476;8.310;2022-09-02T02:21:56;6.23;;;6.03;;
53299;SDS011;39187;48.476;8.310;2022-09-02T02:24:22;6.77;;;6.50;;
53299;SDS011;39187;48.476;8.310;2022-09-02T02:26:49;5.63;;;5.33;;
53299;SDS011;39187;48.476;8.310;2022-09-02T02:29:14;5.87;;;5.67;;
53299;SDS011;39187;48.476;8.310;2022-09-02T02:31:40;5.53;;;5.33;;
53299;SDS011;39187;48.476;8.310;2022-09-02T02:34:06;5.50;;;5.03;;
53299;SDS011;39187;48.476;8.310;2022-09-02T02:36:32;5.70;;;5.20;;
53299;SDS011;39187;48.476;8.310;2022-09-02T02:38:58;5.70;;;5.33;;
53299;SDS011;39187;48.476;8.310;2022-09-02T02:41:25;5.37;;;4.80;;
53299;SDS011;39187;48.476;8.310;2022-09-02T02:43:52;5.00;;;4.80;;
53299;SDS011;39187;48.476;8.310;2022-09-02T02:46:17;13.93;;;7.87;;
53299;SDS011;39187;48.476;8.310;2022-09-02T02:48:43;6.77;;;6.27;;
53299;SDS011;39187;48.476;8.310;2022-09-02T02:51:09;6.10;;;5.70;;
53299;SDS011;39187;48.476;8.310;2022-09-02T02:53:35;6.03;;;5.73;;
53299;SDS011;39187;48.476;8.310;2022-09-02T02:56:01;6.17;;;5.63;;
53299;SDS011;39187;48.476;8.310;2022-09-02T02:58:28;6.70;;;6.20;;
53299;SDS011;39187;48.476;8.310;2022-09-02T03:00:54;5.00;;;4.80;;
53299;SDS011;39187;48.476;8.310;2022-09-02T03:03:20;5.63;;;5.43;;
53299;SDS011;39187;48.476;8.310;2022-09-02T03:05:46;5.87;;;5.57;;
53299;SDS011;39187;48.476;8.310;2022-09-02T03:08:13;5.47;;;5.17;;
53299;SDS011;39187;48.476;8.310;2022-09-02T03:10:41;7.10;;;6.07;;
53299;SDS011;39187;48.476;8.310;2022-09-02T03:13:07;6.30;;;6.00;;
53299;SDS011;39187;48.476;8.310;2022-09-02T03:15:35;5.70;;;5.40;;
53299;SDS011;39187;48.476;8.310;2022-09-02T03:18:02;5.93;;;5.63;;
53299;SDS011;39187;48.476;8.310;2022-09-02T03:20:28;7.23;;;5.63;;
53299;SDS011;39187;48.476;8.310;2022-09-02T03:22:54;7.80;;;6.57;;
53299;SDS011;39187;48.476;8.310;2022-09-02T03:25:23;5.03;;;4.83;;
53299;SDS011;39187;48.476;8.310;2022-09-02T03:27:49;5.53;;;5.33;;
53299;SDS011;39187;48.476;8.310;2022-09-02T03:30:17;7.97;;;6.50;;
53299;SDS011;39187;48.476;8.310;2022-09-02T03:32:49;6.03;;;5.83;;
53299;SDS011;39187;48.476;8.310;2022-09-02T03:35:20;4.70;;;4.30;;
53299;SDS011;39187;48.476;8.310;2022-09-02T03:37:46;4.73;;;4.43;;
53299;SDS011;39187;48.476;8.310;2022-09-02T03:40:14;4.10;;;3.90;;
53299;SDS011;39187;48.476;8.310;2022-09-02T03:42:42;4.53;;;4.43;;
53299;SDS011;39187;48.476;8.310;2022-09-02T03:45:09;5.17;;;4.70;;
53299;SDS011;39187;48.476;8.310;2022-09-02T03:47:36;5.67;;;5.37;;
53299;SDS011;39187;48.476;8.310;2022-09-02T03:50:04;5.30;;;4.90;;
53299;SDS011;39187;48.476;8.310;2022-09-02T03:52:30;5.00;;;4.80;;
53299;SDS011;39187;48.476;8.310;2022-09-02T03:54:56;4.67;;;4.47;;
53299;SDS011;39187;48.476;8.310;2022-09-02T03:57:22;4.77;;;4.57;;
53299;SDS011;39187;48.476;8.310;2022-09-02T03:59:50;4.70;;;4.50;;
53299;SDS011;39187;48.476;8.310;2022-09-02T04:02:16;4.20;;;4.00;;
53299;SDS011;39187;48.476;8.310;2022-09-02T04:04:42;5.73;;;5.50;;
53299;SDS011;39187;48.476;8.310;2022-09-02T04:07:08;5.17;;;4.97;;
53299;SDS011;39187;48.476;8.310;2022-09-02T04:09:33;5.57;;;5.20;;
53299;SDS011;39187;48.476;8.310;2022-09-02T04:11:59;4.80;;;4.60;;
53299;SDS011;39187;48.476;8.310;2022-09-02T04:14:25;5.17;;;4.97;;
53299;SDS011;39187;48.476;8.310;2022-09-02T04:16:51;5.03;;;4.73;;
53299;SDS011;39187;48.476;8.310;2022-09-02T04:19:17;5.23;;;4.93;;
53299;SDS011;39187;48.476;8.310;2022-09-02T04:21:42;4.30;;;4.20;;
53299;SDS011;39187;48.476;8.310;2022-09-02T04:24:08;4.60;;;4.40;;
53299;SDS011;39187;48.476;8.310;2022-09-02T04:26:36;5.10;;;4.90;;
53299;SDS011;39187;48.476;8.310;2022-09-02T04:29:02;5.20;;;4.90;;
53299;SDS011;39187;48.476;8.310;2022-09-02T04:31:28;6.00;;;5.47;;
53299;SDS011;39187;48.476;8.310;2022-09-02T04:33:55;5.03;;;4.43;;
53299;SDS011;39187;48.476;8.310;2022-09-02T04:36:22;4.70;;;4.50;;
53299;SDS011;39187;48.476;8.310;2022-09-02T04:38:49;5.33;;;4.80;;
53299;SDS011;39187;48.476;8.310;2022-09-02T04:41:16;4.47;;;4.20;;
53299;SDS011;39187;48.476;8.310;2022-09-02T04:43:48;4.60;;;4.50;;
53299;SDS011;39187;48.476;8.310;2022-09-02T04:46:14;4.30;;;4.20;;
53299;SDS011;39187;48.476;8.310;2022-09-02T04:48:41;4.20;;;4.10;;
53299;SDS011;39187;48.476;8.310;2022-09-02T04:51:09;5.17;;;4.50;;
53299;SDS011;39187;48.476;8.310;2022-09-02T04:53:37;4.57;;;4.37;;
53299;SDS011;39187;48.476;8.310;2022-09-02T04:56:04;4.70;;;4.30;;
53299;SDS011;39187;48.476;8.310;2022-09-02T04:58:32;4.63;;;4.50;;
53299;SDS011;39187;48.476;8.310;2022-09-02T05:00:58;4.80;;;4.50;;
53299;SDS011;39187;48.476;8.310;2022-09-02T05:03:30;4.73;;;4.53;;
53299;SDS011;39187;48.476;8.310;2022-09-02T05:06:00;4.53;;;4.30;;
53299;SDS011;39187;48.476;8.310;2022-09-02T05:08:27;4.70;;;3.87;;
53299;SDS011;39187;48.476;8.310;2022-09-02T05:10:53;5.60;;;3.30;;
53299;SDS011;39187;48.476;8.310;2022-09-02T05:13:19;3.80;;;3.60;;
53299;SDS011;39187;48.476;8.310;2022-09-02T05:15:44;3.87;;;3.67;;
53299;SDS011;39187;48.476;8.310;2022-09-02T05:18:10;4.00;;;3.67;;
53299;SDS011;39187;48.476;8.310;2022-09-02T05:20:37;3.60;;;3.40;;
53299;SDS011;39187;48.476;8.310;2022-09-02T05:23:04;6.70;;;3.63;;
53299;SDS011;39187;48.476;8.310;2022-09-02T05:25:30;3.47;;;3.37;;
53299;SDS011;39187;48.476;8.310;2022-09-02T05:27:56;3.10;;;2.90;;
53299;SDS011;39187;48.476;8.310;2022-09-02T05:30:22;3.30;;;3.00;;
53299;SDS011;39187;48.476;8.310;2022-09-02T05:32:48;5.93;;;3.30;;
53299;SDS011;39187;48.476;8.310;2022-09-02T05:35:14;4.00;;;3.63;;
53299;SDS011;39187;48.476;8.310;2022-09-02T05:37:40;3.30;;;3.00;;
53299;SDS011;39187;48.476;8.310;2022-09-02T05:40:05;3.13;;;2.93;;
53299;SDS011;39187;48.476;8.310;2022-09-02T05:42:32;3.73;;;3.53;;
53299;SDS011;39187;48.476;8.310;2022-09-02T05:44:58;3.83;;;3.73;;
53299;SDS011;39187;48.476;8.310;2022-09-02T05:47:23;4.13;;;3.33;;
53299;SDS011;39187;48.476;8.310;2022-09-02T05:49:49;2.97;;;2.57;;
53299;SDS011;39187;48.476;8.310;2022-09-02T05:52:15;3.00;;;2.90;;
53299;SDS011;39187;48.476;8.310;2022-09-02T05:54:42;2.80;;;2.70;;
53299;SDS011;39187;48.476;8.310;2022-09-02T05:57:12;2.60;;;2.50;;
53299;SDS011;39187;48.476;8.310;2022-09-02T05:59:39;2.73;;;2.60;;
53299;SDS011;39187;48.476;8.310;2022-09-02T06:02:09;2.27;;;2.17;;
53299;SDS011;39187;48.476;8.310;2022-09-02T06:04:39;2.23;;;2.13;;
53299;SDS011;39187;48.476;8.310;2022-09-02T06:07:07;2.50;;;2.40;;
53299;SDS011;39187;48.476;8.310;2022-09-02T06:09:32;2.70;;;2.50;;
53299;SDS011;39187;48.476;8.310;2022-09-02T06:11:58;2.40;;;2.30;;
53299;SDS011;39187;48.476;8.310;2022-09-02T06:14:24;2.50;;;2.40;;
53299;SDS011;39187;48.476;8.310;2022-09-02T06:16:51;2.47;;;2.37;;
53299;SDS011;39187;48.476;8.310;2022-09-02T06:19:19;2.20;;;2.10;;
53299;SDS011;39187;48.476;8.310;2022-09-02T06:21:46;2.00;;;1.80;;
53299;SDS011;39187;48.476;8.310;2022-09-02T06:24:13;2.30;;;1.73;;
53299;SDS011;39187;48.476;8.310;2022-09-02T06:26:39;2.47;;;2.37;;
53299;SDS011;39187;48.476;8.310;2022-09-02T06:29:06;4.83;;;2.93;;
53299;SDS011;39187;48.476;8.310;2022-09-02T06:31:33;2.63;;;2.50;;
53299;SDS011;39187;48.476;8.310;2022-09-02T06:33:58;6.33;;;2.00;;
53299;SDS011;39187;48.476;8.310;2022-09-02T06:36:25;2.60;;;2.50;;
53299;SDS011;39187;48.476;8.310;2022-09-02T06:38:53;2.47;;;2.30;;
53299;SDS011;39187;48.476;8.310;2022-09-02T06:41:22;2.23;;;2.13;;
53299;SDS011;39187;48.476;8.310;2022-09-02T06:43:53;1.80;;;1.70;;
53299;SDS011;39187;48.476;8.310;2022-09-02T06:46:21;2.10;;;2.00;;
53299;SDS011;39187;48.476;8.310;2022-09-02T06:48:49;2.10;;;2.00;;
53299;SDS011;39187;48.476;8.310;2022-09-02T06:51:16;4.10;;;1.80;;
53299;SDS011;39187;48.476;8.310;2022-09-02T06:53:45;2.30;;;2.20;;
53299;SDS011;39187;48.476;8.310;2022-09-02T06:56:11;2.00;;;1.90;;
53299;SDS011;39187;48.476;8.310;2022-09-02T06:58:37;2.27;;;2.17;;
53299;SDS011;39187;48.476;8.310;2022-09-02T07:01:03;5.57;;;2.07;;
53299;SDS011;39187;48.476;8.310;2022-09-02T07:03:29;2.10;;;2.00;;
53299;SDS011;39187;48.476;8.310;2022-09-02T07:06:13;1.87;;;1.77;;
53299;SDS011;39187;48.476;8.310;2022-09-02T07:08:40;1.87;;;1.77;;
53299;SDS011;39187;48.476;8.310;2022-09-02T07:11:13;2.50;;;1.60;;
53299;SDS011;39187;48.476;8.310;2022-09-02T07:13:41;2.77;;;1.93;;
53299;SDS011;39187;48.476;8.310;2022-09-02T07:16:07;1.80;;;1.70;;
53299;SDS011;39187;48.476;8.310;2022-09-02T07:18:33;2.17;;;1.73;;
53299;SDS011;39187;48.476;8.310;2022-09-02T07:20:59;1.97;;;1.87;;
53299;SDS011;39187;48.476;8.310;2022-09-02T07:23:25;3.63;;;1.60;;
53299;SDS011;39187;48.476;8.310;2022-09-02T07:25:51;1.90;;;1.80;;
53299;SDS011;39187;48.476;8.310;2022-09-02T07:28:17;2.30;;;1.83;;
53299;SDS011;39187;48.476;8.310;2022-09-02T07:30:43;2.43;;;2.33;;
53299;SDS011;39187;48.476;8.310;2022-09-02T07:33:10;2.70;;;1.87;;
53299;SDS011;39187;48.476;8.310;2022-09-02T07:35:38;1.77;;;1.67;;
53299;SDS011;39187;48.476;8.310;2022-09-02T07:38:07;1.87;;;1.77;;
53299;SDS011;39187;48.476;8.310;2022-09-02T07:40:34;1.50;;;1.40;;
53299;SDS011;39187;48.476;8.310;2022-09-02T07:43:01;2.20;;;1.87;;
53299;SDS011;39187;48.476;8.310;2022-09-02T07:45:29;1.93;;;1.83;;
53299;SDS011;39187;48.476;8.310;2022-09-02T07:47:55;4.60;;;1.80;;
53299;SDS011;39187;48.476;8.310;2022-09-02T07:50:22;1.63;;;1.53;;
53299;SDS011;39187;48.476;8.310;2022-09-02T07:52:54;1.83;;;1.73;;
53299;SDS011;39187;48.476;8.310;2022-09-02T07:55:22;1.50;;;1.40;;
53299;SDS011;39187;48.476;8.310;2022-09-02T07:57:49;1.63;;;1.53;;
53299;SDS011;39187;48.476;8.310;2022-09-02T08:00:25;1.70;;;1.60;;
53299;SDS011;39187;48.476;8.310;2022-09-02T08:02:51;2.03;;;1.93;;
53299;SDS011;39187;48.476;8.310;2022-09-02T08:05:17;1.90;;;1.80;;
53299;SDS011;39187;48.476;8.310;2022-09-02T08:07:43;4.63;;;1.57;;
53299;SDS011;39187;48.476;8.310;2022-09-02T08:10:09;5.63;;;1.80;;
53299;SDS011;39187;48.476;8.310;2022-09-02T08:12:37;1.77;;;1.67;;
53299;SDS011;39187;48.476;8.310;2022-09-02T08:15:04;2.57;;;1.83;;
53299;SDS011;39187;48.476;8.310;2022-09-02T08:17:30;2.17;;;1.23;;
53299;SDS011;39187;48.476;8.310;2022-09-02T08:19:56;2.83;;;1.10;;
53299;SDS011;39187;48.476;8.310;2022-09-02T08:22:22;1.90;;;1.80;;
53299;SDS011;39187;48.476;8.310;2022-09-02T08:24:48;1.50;;;1.40;;
53299;SDS011;39187;48.476;8.310;2022-09-02T08:27:13;1.53;;;1.43;;
53299;SDS011;39187;48.476;8.310;2022-09-02T08:29:39;4.10;;;1.73;;
53299;SDS011;39187;48.476;8.310;2022-09-02T08:32:05;1.97;;;1.87;;
53299;SDS011;39187;48.476;8.310;2022-09-02T08:34:30;1.77;;;1.67;;
53299;SDS011;39187;48.476;8.310;2022-09-02T08:36:56;2.10;;;1.70;;
53299;SDS011;39187;48.476;8.310;2022-09-02T08:39:22;1.30;;;1.20;;
53299;SDS011;39187;48.476;8.310;2022-09-02T08:42:07;2.60;;;1.33;;
53299;SDS011;39187;48.476;8.310;2022-09-02T08:44:35;1.80;;;1.70;;
53299;SDS011;39187;48.476;8.310;2022-09-02T08:47:02;1.67;;;1.57;;
53299;SDS011;39187;48.476;8.310;2022-09-02T08:49:37;1.30;;;1.20;;
53299;SDS011;39187;48.476;8.310;2022-09-02T08:52:07;2.00;;;1.87;;
53299;SDS011;39187;48.476;8.310;2022-09-02T08:54:47;3.23;;;1.43;;
53299;SDS011;39187;48.476;8.310;2022-09-02T08:57:21;4.30;;;1.60;;
53299;SDS011;39187;48.476;8.310;2022-09-02T08:59:54;1.70;;;1.60;;
53299;SDS011;39187;48.476;8.310;2022-09-02T09:05:16;1.77;;;1.67;;
53299;SDS011;39187;48.476;8.310;2022-09-02T09:08:21;2.03;;;1.60;;
53299;SDS011;39187;48.476;8.310;2022-09-02T09:10:58;1.87;;;1.77;;
53299;SDS011;39187;48.476;8.310;2022-09-02T09:16:39;2.37;;;2.17;;
53299;SDS011;39187;48.476;8.310;2022-09-02T09:21:54;2.13;;;2.03;;
53299;SDS011;39187;48.476;8.310;2022-09-02T09:24:30;3.70;;;2.20;;
53299;SDS011;39187;48.476;8.310;2022-09-02T09:27:11;2.23;;;2.03;;
53299;SDS011;39187;48.476;8.310;2022-09-02T09:29:42;2.80;;;2.20;;
53299;SDS011;39187;48.476;8.310;2022-09-02T09:32:30;2.07;;;1.93;;
53299;SDS011;39187;48.476;8.310;2022-09-02T09:39:59;1.80;;;1.70;;
53299;SDS011;39187;48.476;8.310;2022-09-02T09:42:35;1.40;;;1.30;;
53299;SDS011;39187;48.476;8.310;2022-09-02T09:45:16;2.00;;;1.90;;
53299;SDS011;39187;48.476;8.310;2022-09-02T09:53:21;2.77;;;1.80;;
53299;SDS011;39187;48.476;8.310;2022-09-02T09:55:54;4.20;;;2.27;;
53299;SDS011;39187;48.476;8.310;2022-09-02T10:03:58;2.00;;;1.90;;
53299;SDS011;39187;48.476;8.310;2022-09-02T10:06:44;3.07;;;1.50;;
53299;SDS011;39187;48.476;8.310;2022-09-02T10:11:53;2.43;;;2.20;;
53299;SDS011;39187;48.476;8.310;2022-09-02T10:14:33;2.10;;;2.00;;
53299;SDS011;39187;48.476;8.310;2022-09-02T10:19:51;1.70;;;1.60;;
53299;SDS011;39187;48.476;8.310;2022-09-02T10:22:36;2.00;;;1.90;;
53299;SDS011;39187;48.476;8.310;2022-09-02T10:25:20;2.47;;;2.27;;
53299;SDS011;39187;48.476;8.310;2022-09-02T10:27:57;4.30;;;1.90;;
53299;SDS011;39187;48.476;8.310;2022-09-02T10:45:17;1.90;;;1.80;;
53299;SDS011;39187;48.476;8.310;2022-09-02T10:47:58;1.80;;;1.70;;
53299;SDS011;39187;48.476;8.310;2022-09-02T10:50:39;3.53;;;2.17;;
53299;SDS011;39187;48.476;8.310;2022-09-02T11:01:58;2.37;;;2.17;;
53299;SDS011;39187;48.476;8.310;2022-09-02T11:04:27;2.20;;;2.10;;
53299;SDS011;39187;48.476;8.310;2022-09-02T11:07:11;3.50;;;2.03;;
53299;SDS011;39187;48.476;8.310;2022-09-02T11:09:47;2.70;;;2.60;;
53299;SDS011;39187;48.476;8.310;2022-09-02T11:12:25;2.37;;;2.27;;
53299;SDS011;39187;48.476;8.310;2022-09-02T11:17:46;1.93;;;1.83;;
53299;SDS011;39187;48.476;8.310;2022-09-02T11:20:25;1.80;;;1.70;;
53299;SDS011;39187;48.476;8.310;2022-09-02T11:24:14;2.13;;;1.93;;
53299;SDS011;39187;48.476;8.310;2022-09-02T11:26:35;2.20;;;2.00;;
53299;SDS011;39187;48.476;8.310;2022-09-02T11:29:16;2.30;;;2.20;;
53299;SDS011;39187;48.476;8.310;2022-09-02T11:32:13;3.17;;;2.97;;
53299;SDS011;39187;48.476;8.310;2022-09-02T11:34:46;3.80;;;3.70;;
53299;SDS011;39187;48.476;8.310;2022-09-02T11:37:33;2.60;;;2.50;;
53299;SDS011;39187;48.476;8.310;2022-09-02T11:40:31;2.70;;;1.47;;
53299;SDS011;39187;48.476;8.310;2022-09-02T11:51:36;2.90;;;2.40;;
53299;SDS011;39187;48.476;8.310;2022-09-02T11:54:11;2.20;;;2.10;;
53299;SDS011;39187;48.476;8.310;2022-09-02T11:56:47;2.30;;;2.20;;
53299;SDS011;39187;48.476;8.310;2022-09-02T12:08:00;2.37;;;2.13;;
53299;SDS011;39187;48.476;8.310;2022-09-02T12:13:36;3.90;;;2.33;;
53299;SDS011;39187;48.476;8.310;2022-09-02T12:18:36;4.47;;;4.27;;
53299;SDS011;39187;48.476;8.310;2022-09-02T12:21:13;2.30;;;2.10;;
53299;SDS011;39187;48.476;8.310;2022-09-02T12:26:25;2.23;;;1.90;;
53299;SDS011;39187;48.476;8.310;2022-09-02T12:31:58;2.90;;;2.60;;
53299;SDS011;39187;48.476;8.310;2022-09-02T12:47:45;3.33;;;2.13;;
53299;SDS011;39187;48.476;8.310;2022-09-02T12:50:24;2.30;;;2.20;;
53299;SDS011;39187;48.476;8.310;2022-09-02T12:53:10;2.00;;;1.90;;
53299;SDS011;39187;48.476;8.310;2022-09-02T12:55:57;1.87;;;1.77;;
53299;SDS011;39187;48.476;8.310;2022-09-02T12:58:35;2.33;;;2.23;;
53299;SDS011;39187;48.476;8.310;2022-09-02T13:01:15;2.47;;;2.37;;
53299;SDS011;39187;48.476;8.310;2022-09-02T13:12:55;4.43;;;2.30;;
53299;SDS011;39187;48.476;8.310;2022-09-02T13:18:12;2.70;;;2.60;;
53299;SDS011;39187;48.476;8.310;2022-09-02T13:32:22;3.00;;;2.70;;
53299;SDS011;39187;48.476;8.310;2022-09-02T13:34:50;2.27;;;2.17;;
53299;SDS011;39187;48.476;8.310;2022-09-02T13:37:33;2.77;;;2.57;;
53299;SDS011;39187;48.476;8.310;2022-09-02T13:40:05;2.40;;;2.07;;
53299;SDS011;39187;48.476;8.310;2022-09-02T13:42:45;2.70;;;2.47;;
53299;SDS011;39187;48.476;8.310;2022-09-02T13:45:20;2.07;;;1.97;;
53299;SDS011;39187;48.476;8.310;2022-09-02T13:47:48;2.03;;;1.93;;
53299;SDS011;39187;48.476;8.310;2022-09-02T13:50:17;4.40;;;2.13;;
53299;SDS011;39187;48.476;8.310;2022-09-02T13:52:46;2.40;;;2.30;;
53299;SDS011;39187;48.476;8.310;2022-09-02T13:55:15;2.00;;;1.90;;
53299;SDS011;39187;48.476;8.310;2022-09-02T13:57:43;2.23;;;1.80;;
53299;SDS011;39187;48.476;8.310;2022-09-02T14:00:13;5.57;;;1.90;;
53299;SDS011;39187;48.476;8.310;2022-09-02T14:02:41;6.63;;;1.90;;
53299;SDS011;39187;48.476;8.310;2022-09-02T14:05:20;2.00;;;1.90;;
53299;SDS011;39187;48.476;8.310;2022-09-02T14:07:50;2.20;;;2.00;;
53299;SDS011;39187;48.476;8.310;2022-09-02T14:10:20;2.60;;;1.67;;
53299;SDS011;39187;48.476;8.310;2022-09-02T14:12:48;3.37;;;2.87;;
53299;SDS011;39187;48.476;8.310;2022-09-02T14:15:16;4.10;;;3.90;;
53299;SDS011;39187;48.476;8.310;2022-09-02T14:18:05;2.33;;;2.23;;
53299;SDS011;39187;48.476;8.310;2022-09-02T14:20:58;2.30;;;2.20;;
53299;SDS011;39187;48.476;8.310;2022-09-02T14:23:28;2.53;;;2.40;;
53299;SDS011;39187;48.476;8.310;2022-09-02T14:25:59;2.40;;;2.20;;
53299;SDS011;39187;48.476;8.310;2022-09-02T14:28:28;2.20;;;2.00;;
53299;SDS011;39187;48.476;8.310;2022-09-02T14:33:26;2.40;;;2.30;;
53299;SDS011;39187;48.476;8.310;2022-09-02T14:36:07;2.70;;;1.67;;
53299;SDS011;39187;48.476;8.310;2022-09-02T14:43:46;3.00;;;1.90;;
53299;SDS011;39187;48.476;8.310;2022-09-02T14:46:22;2.10;;;2.00;;
53299;SDS011;39187;48.476;8.310;2022-09-02T14:49:03;2.43;;;1.90;;
53299;SDS011;39187;48.476;8.310;2022-09-02T14:51:53;2.30;;;2.20;;
53299;SDS011;39187;48.476;8.310;2022-09-02T14:54:32;2.47;;;2.37;;
53299;SDS011;39187;48.476;8.310;2022-09-02T14:57:39;2.17;;;2.07;;
53299;SDS011;39187;48.476;8.310;2022-09-02T15:00:06;2.40;;;2.07;;
53299;SDS011;39187;48.476;8.310;2022-09-02T15:02:40;2.27;;;2.17;;
53299;SDS011;39187;48.476;8.310;2022-09-02T15:05:08;2.03;;;1.93;;
53299;SDS011;39187;48.476;8.310;2022-09-02T15:07:37;7.00;;;1.50;;
53299;SDS011;39187;48.476;8.310;2022-09-02T15:10:03;1.93;;;1.83;;
53299;SDS011;39187;48.476;8.310;2022-09-02T15:12:30;3.47;;;2.07;;
53299;SDS011;39187;48.476;8.310;2022-09-02T15:14:58;2.20;;;2.10;;
53299;SDS011;39187;48.476;8.310;2022-09-02T15:17:24;2.60;;;2.20;;
53299;SDS011;39187;48.476;8.310;2022-09-02T15:19:50;2.03;;;1.93;;
53299;SDS011;39187;48.476;8.310;2022-09-02T15:22:17;2.10;;;2.00;;
53299;SDS011;39187;48.476;8.310;2022-09-02T15:24:44;1.90;;;1.80;;
53299;SDS011;39187;48.476;8.310;2022-09-02T15:27:11;2.00;;;1.90;;
53299;SDS011;39187;48.476;8.310;2022-09-02T15:29:37;5.17;;;2.17;;
53299;SDS011;39187;48.476;8.310;2022-09-02T15:32:04;2.90;;;2.20;;
53299;SDS011;39187;48.476;8.310;2022-09-02T15:34:30;2.30;;;2.20;;
53299;SDS011;39187;48.476;8.310;2022-09-02T15:36:56;2.77;;;2.00;;
53299;SDS011;39187;48.476;8.310;2022-09-02T15:39:22;18.77;;;2.60;;
53299;SDS011;39187;48.476;8.310;2022-09-02T15:41:49;1.80;;;1.70;;
53299;SDS011;39187;48.476;8.310;2022-09-02T15:44:16;2.30;;;2.20;;
53299;SDS011;39187;48.476;8.310;2022-09-02T15:46:42;2.03;;;1.93;;
53299;SDS011;39187;48.476;8.310;2022-09-02T15:49:09;2.17;;;1.97;;
53299;SDS011;39187;48.476;8.310;2022-09-02T15:51:37;1.93;;;1.80;;
53299;SDS011;39187;48.476;8.310;2022-09-02T15:54:04;2.27;;;2.17;;
53299;SDS011;39187;48.476;8.310;2022-09-02T15:56:36;2.27;;;2.07;;
53299;SDS011;39187;48.476;8.310;2022-09-02T15:59:05;2.40;;;2.30;;
53299;SDS011;39187;48.476;8.310;2022-09-02T16:01:45;2.23;;;2.13;;
53299;SDS011;39187;48.476;8.310;2022-09-02T16:04:13;2.80;;;2.60;;
53299;SDS011;39187;48.476;8.310;2022-09-02T16:06:40;4.10;;;3.90;;
53299;SDS011;39187;48.476;8.310;2022-09-02T16:09:09;3.20;;;2.13;;
53299;SDS011;39187;48.476;8.310;2022-09-02T16:11:36;2.10;;;2.00;;
53299;SDS011;39187;48.476;8.310;2022-09-02T16:14:03;2.93;;;2.83;;
53299;SDS011;39187;48.476;8.310;2022-09-02T16:16:28;2.40;;;2.30;;
53299;SDS011;39187;48.476;8.310;2022-09-02T16:18:55;3.80;;;2.97;;
53299;SDS011;39187;48.476;8.310;2022-09-02T16:21:21;2.07;;;1.97;;
53299;SDS011;39187;48.476;8.310;2022-09-02T16:23:46;2.13;;;2.00;;
53299;SDS011;39187;48.476;8.310;2022-09-02T16:26:26;2.13;;;2.03;;
53299;SDS011;39187;48.476;8.310;2022-09-02T16:28:54;2.20;;;2.10;;
53299;SDS011;39187;48.476;8.310;2022-09-02T16:31:25;2.67;;;2.47;;
53299;SDS011;39187;48.476;8.310;2022-09-02T16:33:56;2.47;;;2.37;;
53299;SDS011;39187;48.476;8.310;2022-09-02T16:36:24;1.97;;;1.87;;
53299;SDS011;39187;48.476;8.310;2022-09-02T16:38:51;2.40;;;2.30;;
53299;SDS011;39187;48.476;8.310;2022-09-02T16:41:23;1.80;;;1.70;;
53299;SDS011;39187;48.476;8.310;2022-09-02T16:43:51;2.30;;;2.10;;
53299;SDS011;39187;48.476;8.310;2022-09-02T16:46:21;2.30;;;2.20;;
53299;SDS011;39187;48.476;8.310;2022-09-02T16:48:47;2.10;;;2.00;;
53299;SDS011;39187;48.476;8.310;2022-09-02T16:51:13;2.77;;;2.33;;
53299;SDS011;39187;48.476;8.310;2022-09-02T16:53:39;4.03;;;2.17;;
53299;SDS011;39187;48.476;8.310;2022-09-02T16:56:04;2.87;;;2.77;;
53299;SDS011;39187;48.476;8.310;2022-09-02T16:58:30;2.77;;;2.43;;
53299;SDS011;39187;48.476;8.310;2022-09-02T17:00:56;2.50;;;2.30;;
53299;SDS011;39187;48.476;8.310;2022-09-02T17:03:22;3.07;;;2.90;;
53299;SDS011;39187;48.476;8.310;2022-09-02T17:05:48;5.03;;;2.10;;
53299;SDS011;39187;48.476;8.310;2022-09-02T17:08:14;6.13;;;2.07;;
53299;SDS011;39187;48.476;8.310;2022-09-02T17:10:40;3.47;;;2.00;;
53299;SDS011;39187;48.476;8.310;2022-09-02T17:13:06;2.50;;;2.30;;